sensor_id;sensor_type;location;lat;lon;timestamp;temperature;humidity
3705;DHT22;1868;48.918;9.438;2022-07-29T00:01:41;19.70;97.40
3705;DHT22;1868;48.918;9.438;2022-07-29T00:04:09;19.70;97.40
3705;DHT22;1868;48.918;9.438;2022-07-29T00:06:38;19.70;97.40
3705;DHT22;1868;48.918;9.438;2022-07-29T00:09:07;19.70;97.40
3705;DHT22;1868;48.918;9.438;2022-07-29T00:11:37;19.70;97.40
3705;DHT22;1868;48.918;9.438;2022-07-29T00:14:05;19.80;97.40
3705;DHT22;1868;48.918;9.438;2022-07-29T00:16:34;19.80;97.40
3705;DHT22;1868;48.918;9.438;2022-07-29T00:19:04;19.70;97.40
3705;DHT22;1868;48.918;9.438;2022-07-29T00:21:33;19.70;97.40
3705;DHT22;1868;48.918;9.438;2022-07-29T00:24:02;19.70;97.40
3705;DHT22;1868;48.918;9.438;2022-07-29T00:26:30;19.70;97.40
3705;DHT22;1868;48.918;9.438;2022-07-29T00:29:02;19.70;97.40
3705;DHT22;1868;48.918;9.438;2022-07-29T00:31:51;19.60;97.40
3705;DHT22;1868;48.918;9.438;2022-07-29T00:34:19;19.40;97.40
3705;DHT22;1868;48.918;9.438;2022-07-29T00:37:05;19.40;97.40
3705;DHT22;1868;48.918;9.438;2022-07-29T00:39:33;19.30;97.40
3705;DHT22;1868;48.918;9.438;2022-07-29T00:42:02;19.20;97.40
3705;DHT22;1868;48.918;9.438;2022-07-29T00:44:36;19.20;97.40
3705;DHT22;1868;48.918;9.438;2022-07-29T00:47:05;19.20;97.40
3705;DHT22;1868;48.918;9.438;2022-07-29T00:49:34;19.10;97.40
3705;DHT22;1868;48.918;9.438;2022-07-29T00:52:03;19.00;97.40
3705;DHT22;1868;48.918;9.438;2022-07-29T00:54:33;19.00;97.40
3705;DHT22;1868;48.918;9.438;2022-07-29T00:57:10;19.00;97.40
3705;DHT22;1868;48.918;9.438;2022-07-29T00:59:40;19.00;97.40
3705;DHT22;1868;48.918;9.438;2022-07-29T01:02:09;19.00;97.40
3705;DHT22;1868;48.918;9.438;2022-07-29T01:04:37;18.90;97.40
3705;DHT22;1868;48.918;9.438;2022-07-29T01:07:06;18.90;97.40
3705;DHT22;1868;48.918;9.438;2022-07-29T01:09:35;18.90;97.40
3705;DHT22;1868;48.918;9.438;2022-07-29T01:12:15;18.90;97.40
3705;DHT22;1868;48.918;9.438;2022-07-29T01:14:46;18.90;97.40
3705;DHT22;1868;48.918;9.438;2022-07-29T01:17:20;18.90;97.40
3705;DHT22;1868;48.918;9.438;2022-07-29T01:19:56;18.80;97.40
3705;DHT22;1868;48.918;9.438;2022-07-29T01:22:35;18.70;97.40
3705;DHT22;1868;48.918;9.438;2022-07-29T01:25:19;18.60;97.40
3705;DHT22;1868;48.918;9.438;2022-07-29T01:31:05;18.50;97.40
3705;DHT22;1868;48.918;9.438;2022-07-29T01:33:41;18.50;97.40
3705;DHT22;1868;48.918;9.438;2022-07-29T01:36:20;18.50;97.40
3705;DHT22;1868;48.918;9.438;2022-07-29T01:38:54;18.50;97.40
3705;DHT22;1868;48.918;9.438;2022-07-29T01:41:31;18.50;97.40
3705;DHT22;1868;48.918;9.438;2022-07-29T01:44:10;18.50;97.40
3705;DHT22;1868;48.918;9.438;2022-07-29T01:46:46;18.50;97.40
3705;DHT22;1868;48.918;9.438;2022-07-29T01:49:21;18.40;97.40
3705;DHT22;1868;48.918;9.438;2022-07-29T01:51:59;18.30;97.40
3705;DHT22;1868;48.918;9.438;2022-07-29T01:54:32;18.30;97.40
3705;DHT22;1868;48.918;9.438;2022-07-29T01:57:04;18.30;97.40
3705;DHT22;1868;48.918;9.438;2022-07-29T01:59:36;18.30;97.40
3705;DHT22;1868;48.918;9.438;2022-07-29T02:02:06;18.40;97.40
3705;DHT22;1868;48.918;9.438;2022-07-29T02:04:37;18.40;97.40
3705;DHT22;1868;48.918;9.438;2022-07-29T02:07:10;18.30;97.40
3705;DHT22;1868;48.918;9.438;2022-07-29T02:09:41;18.30;97.40
3705;DHT22;1868;48.918;9.438;2022-07-29T02:12:10;18.30;97.40
3705;DHT22;1868;48.918;9.438;2022-07-29T02:14:44;18.20;97.40
3705;DHT22;1868;48.918;9.438;2022-07-29T02:17:19;18.20;97.40
3705;DHT22;1868;48.918;9.438;2022-07-29T02:19:50;18.20;97.40
3705;DHT22;1868;48.918;9.438;2022-07-29T02:22:19;18.20;97.40
3705;DHT22;1868;48.918;9.438;2022-07-29T02:24:50;18.20;97.40
3705;DHT22;1868;48.918;9.438;2022-07-29T02:27:19;18.20;97.40
3705;DHT22;1868;48.918;9.438;2022-07-29T02:29:51;18.20;97.40
3705;DHT22;1868;48.918;9.438;2022-07-29T02:32:21;18.20;97.40
3705;DHT22;1868;48.918;9.438;2022-07-29T02:34:51;18.10;97.40
3705;DHT22;1868;48.918;9.438;2022-07-29T02:37:21;18.10;97.40
3705;DHT22;1868;48.918;9.438;2022-07-29T02:39:54;18.10;97.40
3705;DHT22;1868;48.918;9.438;2022-07-29T02:42:23;18.10;97.40
3705;DHT22;1868;48.918;9.438;2022-07-29T02:44:53;18.10;97.40
3705;DHT22;1868;48.918;9.438;2022-07-29T02:47:24;18.10;97.40
3705;DHT22;1868;48.918;9.438;2022-07-29T02:50:11;18.10;97.40
3705;DHT22;1868;48.918;9.438;2022-07-29T02:52:43;18.00;97.40
3705;DHT22;1868;48.918;9.438;2022-07-29T02:55:16;17.80;97.40
3705;DHT22;1868;48.918;9.438;2022-07-29T02:57:49;17.80;97.40
3705;DHT22;1868;48.918;9.438;2022-07-29T03:00:23;17.80;97.40
3705;DHT22;1868;48.918;9.438;2022-07-29T03:02:56;17.80;97.40
3705;DHT22;1868;48.918;9.438;2022-07-29T03:05:26;17.80;97.40
3705;DHT22;1868;48.918;9.438;2022-07-29T03:07:57;17.90;97.40
3705;DHT22;1868;48.918;9.438;2022-07-29T03:10:28;17.90;97.40
3705;DHT22;1868;48.918;9.438;2022-07-29T03:12:57;17.90;97.40
3705;DHT22;1868;48.918;9.438;2022-07-29T03:15:27;17.90;97.40
3705;DHT22;1868;48.918;9.438;2022-07-29T03:17:56;17.80;97.40
3705;DHT22;1868;48.918;9.438;2022-07-29T03:20:25;17.80;97.40
3705;DHT22;1868;48.918;9.438;2022-07-29T03:22:54;17.70;97.40
3705;DHT22;1868;48.918;9.438;2022-07-29T03:25:22;17.70;97.40
3705;DHT22;1868;48.918;9.438;2022-07-29T03:27:50;17.70;97.40
3705;DHT22;1868;48.918;9.438;2022-07-29T03:30:19;17.60;97.40
3705;DHT22;1868;48.918;9.438;2022-07-29T03:32:50;17.50;97.40
3705;DHT22;1868;48.918;9.438;2022-07-29T03:35:19;17.40;97.40
3705;DHT22;1868;48.918;9.438;2022-07-29T03:37:47;17.30;97.40
3705;DHT22;1868;48.918;9.438;2022-07-29T03:40:19;17.30;97.40
3705;DHT22;1868;48.918;9.438;2022-07-29T03:42:51;17.30;97.40
3705;DHT22;1868;48.918;9.438;2022-07-29T03:45:23;17.40;97.40
3705;DHT22;1868;48.918;9.438;2022-07-29T03:47:56;17.30;97.40
3705;DHT22;1868;48.918;9.438;2022-07-29T03:50:27;17.40;97.40
3705;DHT22;1868;48.918;9.438;2022-07-29T03:52:57;17.40;97.40
3705;DHT22;1868;48.918;9.438;2022-07-29T03:55:26;17.50;97.40
3705;DHT22;1868;48.918;9.438;2022-07-29T03:57:57;17.50;97.40
3705;DHT22;1868;48.918;9.438;2022-07-29T04:00:27;17.40;97.40
3705;DHT22;1868;48.918;9.438;2022-07-29T04:02:56;17.50;97.40
3705;DHT22;1868;48.918;9.438;2022-07-29T04:05:25;17.60;97.40
3705;DHT22;1868;48.918;9.438;2022-07-29T04:07:53;17.60;97.40
3705;DHT22;1868;48.918;9.438;2022-07-29T04:10:23;17.50;97.40
3705;DHT22;1868;48.918;9.438;2022-07-29T04:12:58;17.50;97.40
3705;DHT22;1868;48.918;9.438;2022-07-29T04:15:27;17.50;97.40
3705;DHT22;1868;48.918;9.438;2022-07-29T04:17:58;17.50;97.40
3705;DHT22;1868;48.918;9.438;2022-07-29T04:20:27;17.60;97.40
3705;DHT22;1868;48.918;9.438;2022-07-29T04:22:55;17.60;97.40
3705;DHT22;1868;48.918;9.438;2022-07-29T04:25:23;17.70;97.40
3705;DHT22;1868;48.918;9.438;2022-07-29T04:27:52;17.70;97.40
3705;DHT22;1868;48.918;9.438;2022-07-29T04:30:30;17.80;97.40
3705;DHT22;1868;48.918;9.438;2022-07-29T04:33:01;17.80;97.40
3705;DHT22;1868;48.918;9.438;2022-07-29T04:35:30;17.80;97.40
3705;DHT22;1868;48.918;9.438;2022-07-29T04:38:05;17.90;97.40
3705;DHT22;1868;48.918;9.438;2022-07-29T04:40:41;18.00;97.40
3705;DHT22;1868;48.918;9.438;2022-07-29T04:43:10;18.00;97.40
3705;DHT22;1868;48.918;9.438;2022-07-29T04:45:40;18.00;97.40
3705;DHT22;1868;48.918;9.438;2022-07-29T04:48:09;18.00;97.40
3705;DHT22;1868;48.918;9.438;2022-07-29T04:50:38;18.00;97.40
3705;DHT22;1868;48.918;9.438;2022-07-29T04:53:06;18.00;97.40
3705;DHT22;1868;48.918;9.438;2022-07-29T04:55:35;18.00;97.40
3705;DHT22;1868;48.918;9.438;2022-07-29T04:58:04;18.10;97.40
3705;DHT22;1868;48.918;9.438;2022-07-29T05:00:34;18.20;97.40
3705;DHT22;1868;48.918;9.438;2022-07-29T05:03:02;18.20;97.40
3705;DHT22;1868;48.918;9.438;2022-07-29T05:05:32;18.30;97.40
3705;DHT22;1868;48.918;9.438;2022-07-29T05:08:01;18.40;97.40
3705;DHT22;1868;48.918;9.438;2022-07-29T05:10:29;18.50;97.40
3705;DHT22;1868;48.918;9.438;2022-07-29T05:12:57;18.60;97.40
3705;DHT22;1868;48.918;9.438;2022-07-29T05:15:26;18.70;97.40
3705;DHT22;1868;48.918;9.438;2022-07-29T05:17:54;18.70;97.40
3705;DHT22;1868;48.918;9.438;2022-07-29T05:20:22;18.80;97.40
3705;DHT22;1868;48.918;9.438;2022-07-29T05:22:56;18.90;97.40
3705;DHT22;1868;48.918;9.438;2022-07-29T05:25:26;19.00;97.40
3705;DHT22;1868;48.918;9.438;2022-07-29T05:28:10;19.10;97.40
3705;DHT22;1868;48.918;9.438;2022-07-29T05:30:38;19.30;97.40
3705;DHT22;1868;48.918;9.438;2022-07-29T05:33:07;19.40;97.40
3705;DHT22;1868;48.918;9.438;2022-07-29T05:35:55;19.50;97.40
3705;DHT22;1868;48.918;9.438;2022-07-29T05:38:28;19.60;97.40
3705;DHT22;1868;48.918;9.438;2022-07-29T05:40:57;19.80;97.40
3705;DHT22;1868;48.918;9.438;2022-07-29T05:43:27;19.80;97.40
3705;DHT22;1868;48.918;9.438;2022-07-29T05:45:56;19.90;97.40
3705;DHT22;1868;48.918;9.438;2022-07-29T05:48:25;20.00;97.40
3705;DHT22;1868;48.918;9.438;2022-07-29T05:50:54;20.10;97.40
3705;DHT22;1868;48.918;9.438;2022-07-29T05:53:22;20.00;97.40
3705;DHT22;1868;48.918;9.438;2022-07-29T05:55:52;20.10;97.40
3705;DHT22;1868;48.918;9.438;2022-07-29T05:58:20;20.10;97.40
3705;DHT22;1868;48.918;9.438;2022-07-29T06:00:49;20.20;97.40
3705;DHT22;1868;48.918;9.438;2022-07-29T06:03:17;20.40;97.40
3705;DHT22;1868;48.918;9.438;2022-07-29T06:05:45;20.50;97.40
3705;DHT22;1868;48.918;9.438;2022-07-29T06:08:15;20.60;97.40
3705;DHT22;1868;48.918;9.438;2022-07-29T06:10:48;20.70;97.40
3705;DHT22;1868;48.918;9.438;2022-07-29T06:13:18;20.90;97.40
3705;DHT22;1868;48.918;9.438;2022-07-29T06:15:46;21.10;97.40
3705;DHT22;1868;48.918;9.438;2022-07-29T06:18:15;21.30;97.40
3705;DHT22;1868;48.918;9.438;2022-07-29T06:20:43;21.50;97.40
3705;DHT22;1868;48.918;9.438;2022-07-29T06:23:11;21.60;97.40
3705;DHT22;1868;48.918;9.438;2022-07-29T06:25:40;21.80;97.40
3705;DHT22;1868;48.918;9.438;2022-07-29T06:28:08;21.90;97.40
3705;DHT22;1868;48.918;9.438;2022-07-29T06:30:39;22.10;97.40
3705;DHT22;1868;48.918;9.438;2022-07-29T06:33:07;22.30;97.40
3705;DHT22;1868;48.918;9.438;2022-07-29T06:35:36;22.50;97.40
3705;DHT22;1868;48.918;9.438;2022-07-29T06:38:08;22.70;97.40
3705;DHT22;1868;48.918;9.438;2022-07-29T06:40:59;22.80;97.40
3705;DHT22;1868;48.918;9.438;2022-07-29T06:43:34;23.00;97.40
3705;DHT22;1868;48.918;9.438;2022-07-29T06:46:22;23.20;97.40
3705;DHT22;1868;48.918;9.438;2022-07-29T06:48:50;23.40;97.40
3705;DHT22;1868;48.918;9.438;2022-07-29T06:51:20;23.50;97.40
3705;DHT22;1868;48.918;9.438;2022-07-29T06:53:50;23.60;96.90
3705;DHT22;1868;48.918;9.438;2022-07-29T06:56:29;23.60;95.80
3705;DHT22;1868;48.918;9.438;2022-07-29T06:59:04;23.60;95.80
3705;DHT22;1868;48.918;9.438;2022-07-29T07:01:35;23.70;95.30
3705;DHT22;1868;48.918;9.438;2022-07-29T07:04:05;23.70;96.40
3705;DHT22;1868;48.918;9.438;2022-07-29T07:06:35;23.80;94.90
3705;DHT22;1868;48.918;9.438;2022-07-29T07:09:04;23.80;94.60
3705;DHT22;1868;48.918;9.438;2022-07-29T07:11:33;23.90;95.40
3705;DHT22;1868;48.918;9.438;2022-07-29T07:14:01;23.80;93.50
3705;DHT22;1868;48.918;9.438;2022-07-29T07:16:30;23.80;94.00
3705;DHT22;1868;48.918;9.438;2022-07-29T07:19:00;24.00;93.90
3705;DHT22;1868;48.918;9.438;2022-07-29T07:21:29;24.10;94.00
3705;DHT22;1868;48.918;9.438;2022-07-29T07:23:57;24.10;94.10
3705;DHT22;1868;48.918;9.438;2022-07-29T07:26:26;24.20;91.90
3705;DHT22;1868;48.918;9.438;2022-07-29T07:28:55;24.50;91.50
3705;DHT22;1868;48.918;9.438;2022-07-29T07:31:23;24.70;92.00
3705;DHT22;1868;48.918;9.438;2022-07-29T07:33:52;24.90;90.20
3705;DHT22;1868;48.918;9.438;2022-07-29T07:36:22;25.00;90.10
3705;DHT22;1868;48.918;9.438;2022-07-29T07:38:51;25.10;90.60
3705;DHT22;1868;48.918;9.438;2022-07-29T07:41:19;25.10;88.40
3705;DHT22;1868;48.918;9.438;2022-07-29T07:43:48;25.00;88.40
3705;DHT22;1868;48.918;9.438;2022-07-29T07:46:16;25.20;88.60
3705;DHT22;1868;48.918;9.438;2022-07-29T07:48:45;25.30;88.20
3705;DHT22;1868;48.918;9.438;2022-07-29T07:51:15;25.30;87.30
3705;DHT22;1868;48.918;9.438;2022-07-29T07:53:45;25.50;87.50
3705;DHT22;1868;48.918;9.438;2022-07-29T07:56:16;25.60;85.80
3705;DHT22;1868;48.918;9.438;2022-07-29T07:58:44;25.70;86.80
3705;DHT22;1868;48.918;9.438;2022-07-29T08:01:12;25.90;85.10
3705;DHT22;1868;48.918;9.438;2022-07-29T08:03:41;26.10;84.90
3705;DHT22;1868;48.918;9.438;2022-07-29T08:06:10;26.20;82.80
3705;DHT22;1868;48.918;9.438;2022-07-29T08:08:40;26.20;83.00
3705;DHT22;1868;48.918;9.438;2022-07-29T08:11:10;26.30;83.60
3705;DHT22;1868;48.918;9.438;2022-07-29T08:13:39;26.50;83.80
3705;DHT22;1868;48.918;9.438;2022-07-29T08:16:08;26.70;82.10
3705;DHT22;1868;48.918;9.438;2022-07-29T08:18:40;26.90;79.30
3705;DHT22;1868;48.918;9.438;2022-07-29T08:21:10;27.10;79.90
3705;DHT22;1868;48.918;9.438;2022-07-29T08:23:42;27.20;79.10
3705;DHT22;1868;48.918;9.438;2022-07-29T08:26:26;27.20;80.60
3705;DHT22;1868;48.918;9.438;2022-07-29T08:28:54;27.30;78.90
3705;DHT22;1868;48.918;9.438;2022-07-29T08:31:23;27.40;79.90
3705;DHT22;1868;48.918;9.438;2022-07-29T08:33:51;27.60;78.90
3705;DHT22;1868;48.918;9.438;2022-07-29T08:36:20;27.70;79.70
3705;DHT22;1868;48.918;9.438;2022-07-29T08:38:48;27.70;74.60
3705;DHT22;1868;48.918;9.438;2022-07-29T08:41:18;27.60;75.20
3705;DHT22;1868;48.918;9.438;2022-07-29T08:43:48;27.80;76.30
3705;DHT22;1868;48.918;9.438;2022-07-29T08:46:18;28.00;73.50
3705;DHT22;1868;48.918;9.438;2022-07-29T08:48:47;28.20;72.20
3705;DHT22;1868;48.918;9.438;2022-07-29T08:51:17;28.50;74.30
3705;DHT22;1868;48.918;9.438;2022-07-29T08:53:49;28.60;73.20
3705;DHT22;1868;48.918;9.438;2022-07-29T08:56:19;28.90;70.70
3705;DHT22;1868;48.918;9.438;2022-07-29T08:58:49;29.20;71.10
3705;DHT22;1868;48.918;9.438;2022-07-29T09:01:24;29.60;70.00
3705;DHT22;1868;48.918;9.438;2022-07-29T09:04:11;29.70;67.20
3705;DHT22;1868;48.918;9.438;2022-07-29T09:06:43;29.70;67.00
3705;DHT22;1868;48.918;9.438;2022-07-29T09:09:13;29.80;64.00
3705;DHT22;1868;48.918;9.438;2022-07-29T09:11:42;30.00;64.80
3705;DHT22;1868;48.918;9.438;2022-07-29T09:14:13;30.20;63.30
3705;DHT22;1868;48.918;9.438;2022-07-29T09:16:47;30.40;62.70
3705;DHT22;1868;48.918;9.438;2022-07-29T09:19:21;30.70;61.60
3705;DHT22;1868;48.918;9.438;2022-07-29T09:21:51;30.90;59.60
3705;DHT22;1868;48.918;9.438;2022-07-29T09:24:43;30.70;58.70
3705;DHT22;1868;48.918;9.438;2022-07-29T09:27:20;30.90;59.00
3705;DHT22;1868;48.918;9.438;2022-07-29T09:29:59;31.00;60.10
3705;DHT22;1868;48.918;9.438;2022-07-29T09:32:29;31.10;55.40
3705;DHT22;1868;48.918;9.438;2022-07-29T09:35:18;31.20;54.90
3705;DHT22;1868;48.918;9.438;2022-07-29T09:37:49;31.50;54.80
3705;DHT22;1868;48.918;9.438;2022-07-29T09:40:19;31.90;53.40
3705;DHT22;1868;48.918;9.438;2022-07-29T09:42:48;32.20;52.50
3705;DHT22;1868;48.918;9.438;2022-07-29T09:45:29;32.20;52.20
3705;DHT22;1868;48.918;9.438;2022-07-29T09:47:58;32.60;50.30
3705;DHT22;1868;48.918;9.438;2022-07-29T09:50:39;33.00;51.90
3705;DHT22;1868;48.918;9.438;2022-07-29T09:53:08;33.50;48.70
3705;DHT22;1868;48.918;9.438;2022-07-29T09:55:47;33.70;48.50
3705;DHT22;1868;48.918;9.438;2022-07-29T09:58:18;34.20;47.90
3705;DHT22;1868;48.918;9.438;2022-07-29T10:00:50;34.70;46.40
3705;DHT22;1868;48.918;9.438;2022-07-29T10:03:19;34.90;45.90
3705;DHT22;1868;48.918;9.438;2022-07-29T10:06:04;35.00;46.10
3705;DHT22;1868;48.918;9.438;2022-07-29T10:08:36;35.60;45.30
3705;DHT22;1868;48.918;9.438;2022-07-29T10:11:12;35.50;42.00
3705;DHT22;1868;48.918;9.438;2022-07-29T10:13:43;35.10;44.00
3705;DHT22;1868;48.918;9.438;2022-07-29T10:16:15;35.30;43.50
3705;DHT22;1868;48.918;9.438;2022-07-29T10:18:44;35.80;42.00
3705;DHT22;1868;48.918;9.438;2022-07-29T10:21:14;36.40;42.90
3705;DHT22;1868;48.918;9.438;2022-07-29T10:24:01;36.80;37.30
3705;DHT22;1868;48.918;9.438;2022-07-29T10:26:30;36.40;39.80
3705;DHT22;1868;48.918;9.438;2022-07-29T10:28:58;36.80;38.50
3705;DHT22;1868;48.918;9.438;2022-07-29T10:31:33;36.40;37.60
3705;DHT22;1868;48.918;9.438;2022-07-29T10:34:12;35.70;38.80
3705;DHT22;1868;48.918;9.438;2022-07-29T10:36:53;34.90;40.90
3705;DHT22;1868;48.918;9.438;2022-07-29T10:39:35;34.40;42.70
3705;DHT22;1868;48.918;9.438;2022-07-29T10:42:18;33.70;44.00
3705;DHT22;1868;48.918;9.438;2022-07-29T10:44:59;33.30;47.50
3705;DHT22;1868;48.918;9.438;2022-07-29T10:47:29;33.10;48.20
3705;DHT22;1868;48.918;9.438;2022-07-29T10:50:05;32.80;48.70
3705;DHT22;1868;48.918;9.438;2022-07-29T10:52:54;32.50;49.90
3705;DHT22;1868;48.918;9.438;2022-07-29T10:55:32;32.30;49.60
3705;DHT22;1868;48.918;9.438;2022-07-29T10:58:13;31.90;50.80
3705;DHT22;1868;48.918;9.438;2022-07-29T11:00:45;31.60;52.20
3705;DHT22;1868;48.918;9.438;2022-07-29T11:03:45;31.30;51.40
3705;DHT22;1868;48.918;9.438;2022-07-29T11:06:18;30.80;53.50
3705;DHT22;1868;48.918;9.438;2022-07-29T11:09:14;30.40;54.00
3705;DHT22;1868;48.918;9.438;2022-07-29T11:11:46;30.10;54.90
3705;DHT22;1868;48.918;9.438;2022-07-29T11:18:08;29.60;57.00
3705;DHT22;1868;48.918;9.438;2022-07-29T11:20:44;29.40;57.80
3705;DHT22;1868;48.918;9.438;2022-07-29T11:23:23;29.00;58.70
3705;DHT22;1868;48.918;9.438;2022-07-29T11:26:17;28.70;60.50
3705;DHT22;1868;48.918;9.438;2022-07-29T11:28:54;28.60;59.60
3705;DHT22;1868;48.918;9.438;2022-07-29T11:31:37;28.40;60.10
3705;DHT22;1868;48.918;9.438;2022-07-29T11:34:19;28.20;60.10
3705;DHT22;1868;48.918;9.438;2022-07-29T11:37:22;28.10;59.80
3705;DHT22;1868;48.918;9.438;2022-07-29T11:40:15;27.90;61.20
3705;DHT22;1868;48.918;9.438;2022-07-29T11:42:50;27.70;60.90
3705;DHT22;1868;48.918;9.438;2022-07-29T11:45:24;27.50;61.40
3705;DHT22;1868;48.918;9.438;2022-07-29T11:48:15;27.40;62.00
3705;DHT22;1868;48.918;9.438;2022-07-29T11:51:10;27.20;63.30
3705;DHT22;1868;48.918;9.438;2022-07-29T11:53:46;27.10;63.80
3705;DHT22;1868;48.918;9.438;2022-07-29T11:56:21;26.90;66.10
3705;DHT22;1868;48.918;9.438;2022-07-29T11:59:03;26.90;66.80
3705;DHT22;1868;48.918;9.438;2022-07-29T12:01:34;26.90;69.60
3705;DHT22;1868;48.918;9.438;2022-07-29T12:04:03;26.90;70.50
3705;DHT22;1868;48.918;9.438;2022-07-29T12:06:32;26.80;72.60
3705;DHT22;1868;48.918;9.438;2022-07-29T12:09:06;26.80;75.20
3705;DHT22;1868;48.918;9.438;2022-07-29T12:11:40;26.90;78.90
3705;DHT22;1868;48.918;9.438;2022-07-29T12:14:26;26.90;80.00
3705;DHT22;1868;48.918;9.438;2022-07-29T12:16:55;26.90;79.10
3705;DHT22;1868;48.918;9.438;2022-07-29T12:19:24;26.70;81.20
3705;DHT22;1868;48.918;9.438;2022-07-29T12:21:54;26.60;83.80
3705;DHT22;1868;48.918;9.438;2022-07-29T12:24:42;26.50;84.10
3705;DHT22;1868;48.918;9.438;2022-07-29T12:27:12;26.40;85.30
3705;DHT22;1868;48.918;9.438;2022-07-29T12:29:56;26.40;85.10
3705;DHT22;1868;48.918;9.438;2022-07-29T12:32:31;26.30;85.50
3705;DHT22;1868;48.918;9.438;2022-07-29T12:35:03;26.30;84.90
3705;DHT22;1868;48.918;9.438;2022-07-29T12:37:33;26.30;83.60
3705;DHT22;1868;48.918;9.438;2022-07-29T12:40:11;26.50;81.70
3705;DHT22;1868;48.918;9.438;2022-07-29T12:43:07;26.60;79.90
3705;DHT22;1868;48.918;9.438;2022-07-29T12:45:37;26.90;77.60
3705;DHT22;1868;48.918;9.438;2022-07-29T12:48:06;27.60;74.50
3705;DHT22;1868;48.918;9.438;2022-07-29T12:50:36;27.80;70.90
3705;DHT22;1868;48.918;9.438;2022-07-29T12:53:19;28.20;67.70
3705;DHT22;1868;48.918;9.438;2022-07-29T12:55:49;28.40;64.20
3705;DHT22;1868;48.918;9.438;2022-07-29T12:58:32;28.60;62.20
3705;DHT22;1868;48.918;9.438;2022-07-29T13:01:09;29.10;62.30
3705;DHT22;1868;48.918;9.438;2022-07-29T13:03:48;29.20;55.50
3705;DHT22;1868;48.918;9.438;2022-07-29T13:06:38;29.00;58.00
3705;DHT22;1868;48.918;9.438;2022-07-29T13:09:09;28.60;60.10
3705;DHT22;1868;48.918;9.438;2022-07-29T13:11:40;28.40;58.70
3705;DHT22;1868;48.918;9.438;2022-07-29T13:14:33;28.10;60.30
3705;DHT22;1868;48.918;9.438;2022-07-29T13:17:05;27.80;62.00
3705;DHT22;1868;48.918;9.438;2022-07-29T13:19:36;27.70;62.90
3705;DHT22;1868;48.918;9.438;2022-07-29T13:22:07;27.60;64.60
3705;DHT22;1868;48.918;9.438;2022-07-29T13:24:46;27.20;65.30
3705;DHT22;1868;48.918;9.438;2022-07-29T13:27:15;27.20;68.50
3705;DHT22;1868;48.918;9.438;2022-07-29T13:29:47;27.30;67.00
3705;DHT22;1868;48.918;9.438;2022-07-29T13:32:18;27.20;66.10
3705;DHT22;1868;48.918;9.438;2022-07-29T13:34:55;27.20;64.60
3705;DHT22;1868;48.918;9.438;2022-07-29T13:37:24;27.00;61.40
3705;DHT22;1868;48.918;9.438;2022-07-29T13:39:52;26.90;62.30
3705;DHT22;1868;48.918;9.438;2022-07-29T13:42:22;26.70;63.70
3705;DHT22;1868;48.918;9.438;2022-07-29T13:44:52;26.20;65.70
3705;DHT22;1868;48.918;9.438;2022-07-29T13:47:21;26.00;65.70
3705;DHT22;1868;48.918;9.438;2022-07-29T13:49:59;26.00;67.40
3705;DHT22;1868;48.918;9.438;2022-07-29T13:52:27;26.00;68.10
3705;DHT22;1868;48.918;9.438;2022-07-29T13:54:56;26.00;68.10
3705;DHT22;1868;48.918;9.438;2022-07-29T13:57:24;25.80;68.50
3705;DHT22;1868;48.918;9.438;2022-07-29T13:59:54;25.70;69.40
3705;DHT22;1868;48.918;9.438;2022-07-29T14:02:23;25.70;71.50
3705;DHT22;1868;48.918;9.438;2022-07-29T14:04:52;25.60;72.40
3705;DHT22;1868;48.918;9.438;2022-07-29T14:07:21;25.50;74.10
3705;DHT22;1868;48.918;9.438;2022-07-29T14:09:50;25.50;73.90
3705;DHT22;1868;48.918;9.438;2022-07-29T14:12:18;25.30;74.30
3705;DHT22;1868;48.918;9.438;2022-07-29T14:14:47;25.20;74.50
3705;DHT22;1868;48.918;9.438;2022-07-29T14:17:17;24.90;75.60
3705;DHT22;1868;48.918;9.438;2022-07-29T14:19:45;24.80;77.30
3705;DHT22;1868;48.918;9.438;2022-07-29T14:22:14;24.70;78.40
3705;DHT22;1868;48.918;9.438;2022-07-29T14:24:48;24.80;78.70
3705;DHT22;1868;48.918;9.438;2022-07-29T14:27:17;24.90;78.00
3705;DHT22;1868;48.918;9.438;2022-07-29T14:30:04;25.00;77.80
3705;DHT22;1868;48.918;9.438;2022-07-29T14:32:35;25.10;77.10
3705;DHT22;1868;48.918;9.438;2022-07-29T14:35:04;25.20;77.30
3705;DHT22;1868;48.918;9.438;2022-07-29T14:37:33;25.40;77.30
3705;DHT22;1868;48.918;9.438;2022-07-29T14:40:07;25.40;76.90
3705;DHT22;1868;48.918;9.438;2022-07-29T14:42:36;25.40;76.70
3705;DHT22;1868;48.918;9.438;2022-07-29T14:45:06;25.40;77.80
3705;DHT22;1868;48.918;9.438;2022-07-29T14:47:37;25.40;78.20
3705;DHT22;1868;48.918;9.438;2022-07-29T14:50:07;25.50;77.60
3705;DHT22;1868;48.918;9.438;2022-07-29T14:52:36;25.50;78.20
3705;DHT22;1868;48.918;9.438;2022-07-29T14:55:05;25.50;77.40
3705;DHT22;1868;48.918;9.438;2022-07-29T14:57:46;25.60;77.80
3705;DHT22;1868;48.918;9.438;2022-07-29T15:00:15;25.60;77.80
3705;DHT22;1868;48.918;9.438;2022-07-29T15:02:45;25.50;77.40
3705;DHT22;1868;48.918;9.438;2022-07-29T15:05:28;25.50;78.00
3705;DHT22;1868;48.918;9.438;2022-07-29T15:07:56;25.60;78.20
3705;DHT22;1868;48.918;9.438;2022-07-29T15:10:25;25.60;77.80
3705;DHT22;1868;48.918;9.438;2022-07-29T15:12:55;25.60;78.60
3705;DHT22;1868;48.918;9.438;2022-07-29T15:15:24;25.60;78.70
3705;DHT22;1868;48.918;9.438;2022-07-29T15:17:55;25.50;78.20
3705;DHT22;1868;48.918;9.438;2022-07-29T15:20:23;25.50;78.40
3705;DHT22;1868;48.918;9.438;2022-07-29T15:22:54;25.60;78.70
3705;DHT22;1868;48.918;9.438;2022-07-29T15:25:23;25.60;77.80
3705;DHT22;1868;48.918;9.438;2022-07-29T15:27:54;25.60;78.00
3705;DHT22;1868;48.918;9.438;2022-07-29T15:30:27;25.60;76.90
3705;DHT22;1868;48.918;9.438;2022-07-29T15:33:02;25.50;77.80
3705;DHT22;1868;48.918;9.438;2022-07-29T15:35:31;25.40;78.00
3705;DHT22;1868;48.918;9.438;2022-07-29T15:38:06;25.40;79.10
3705;DHT22;1868;48.918;9.438;2022-07-29T15:40:36;25.40;78.70
3705;DHT22;1868;48.918;9.438;2022-07-29T15:43:05;25.40;78.60
3705;DHT22;1868;48.918;9.438;2022-07-29T15:45:37;25.40;78.00
3705;DHT22;1868;48.918;9.438;2022-07-29T15:48:08;25.50;77.60
3705;DHT22;1868;48.918;9.438;2022-07-29T15:50:40;25.50;77.80
3705;DHT22;1868;48.918;9.438;2022-07-29T15:53:12;25.60;77.60
3705;DHT22;1868;48.918;9.438;2022-07-29T15:55:41;25.70;78.00
3705;DHT22;1868;48.918;9.438;2022-07-29T15:58:11;25.80;77.10
3705;DHT22;1868;48.918;9.438;2022-07-29T16:00:40;25.80;77.60
3705;DHT22;1868;48.918;9.438;2022-07-29T16:03:09;25.90;76.90
3705;DHT22;1868;48.918;9.438;2022-07-29T16:05:38;25.90;76.70
3705;DHT22;1868;48.918;9.438;2022-07-29T16:08:06;25.80;75.80
3705;DHT22;1868;48.918;9.438;2022-07-29T16:10:34;25.70;77.40
3705;DHT22;1868;48.918;9.438;2022-07-29T16:13:03;25.70;76.70
3705;DHT22;1868;48.918;9.438;2022-07-29T16:15:31;25.60;76.70
3705;DHT22;1868;48.918;9.438;2022-07-29T16:17:59;25.60;76.30
3705;DHT22;1868;48.918;9.438;2022-07-29T16:20:30;25.50;76.70
3705;DHT22;1868;48.918;9.438;2022-07-29T16:22:58;25.50;77.60
3705;DHT22;1868;48.918;9.438;2022-07-29T16:25:27;25.50;77.80
3705;DHT22;1868;48.918;9.438;2022-07-29T16:28:15;25.50;78.70
3705;DHT22;1868;48.918;9.438;2022-07-29T16:30:44;25.50;78.40
3705;DHT22;1868;48.918;9.438;2022-07-29T16:33:12;25.50;78.70
3705;DHT22;1868;48.918;9.438;2022-07-29T16:35:42;25.50;77.80
3705;DHT22;1868;48.918;9.438;2022-07-29T16:38:10;25.50;78.20
3705;DHT22;1868;48.918;9.438;2022-07-29T16:40:38;25.40;78.90
3705;DHT22;1868;48.918;9.438;2022-07-29T16:43:07;25.50;78.70